YMAV

Avalon Airport

Melbourne, Australia
TAF AMD YMAV 201744Z 2018/2118 VRB05KT 0500 FG BKN002 BECMG 2100/2102 11006KT 7000 HZ SCT010 FM210400 VRB05KT CAVOK FM211500 26008KT 9999 BKN010 PROB30 2112/2118 0500 FG BKN003
Issued Valid From Valid To
Apr-20 @ 17:44 UTC
(55 minutes ago)
Apr-20 @ 18:00 UTC
(39 minutes ago)
Apr-21 @ 18:00 UTC
(in 23 hours)
Apr-20 @ 18:00 to Apr-21 @ 00:00
TAF AMD YMAV 201744Z 2018/2118 VRB05KT 0500 FG BKN002
Wind Visibility Clouds Conditions
Variable at 5 knots 499 meters
  • Broken at 200' AGL
  • Fog
Becoming Apr-21 @ 00:00 to Apr-21 @ 04:00
BECMG 2100/2102 11006KT 7000 HZ SCT010
Wind Visibility Clouds Conditions
110° at 6 knots 7,001 meters
  • Scattered at 1,000' AGL
  • Haze
From Apr-21 @ 04:00 to Apr-21 @ 15:00
FM210400 VRB05KT CAVOK
Wind Visibility Clouds Conditions
Variable at 5 knots 10,000+ meters
  • No significant clouds
Probable  (Probability 30%) Apr-21 @ 12:00 to Apr-21 @ 18:00
PROB30 2112/2118 0500 FG BKN003
Visibility Clouds Conditions
499 meters
  • Broken at 300' AGL
  • Fog
From Apr-21 @ 15:00 to Apr-21 @ 18:00
FM211500 26008KT 9999 BKN010
Wind Visibility Clouds
260° at 8 knots 10,000+ meters
  • Broken at 1,000' AGL
TAF AMD YMAV 201744Z 2018/2118 VRB05KT 0500 FG BKN002 BECMG 2100/2102 11006KT 7000 HZ SCT010 FM210400 VRB05KT CAVOK FM211500 26008KT 9999 BKN010 PROB30 2112/2118 0500 FG BKN003
Issued Apr-20 @ 17:44 UTC
(55 minutes ago)
Valid From Apr-20 @ 18:00 UTC
(39 minutes ago)
Valid To Apr-21 @ 18:00 UTC
(in 23 hours)
Apr-20 @ 18:00 - Apr-21 @ 00:00
Wind Visibility
Variable at 5 knots 499 meters
Clouds
  • Broken at 200' AGL
Conditions
  • Fog
Becoming Apr-21 @ 00:00 - Apr-21 @ 04:00
Wind Visibility
110° at 6 knots 7,001 meters
Clouds
  • Scattered at 1,000' AGL
Conditions
  • Haze
From Apr-21 @ 04:00 - Apr-21 @ 15:00
Wind Visibility
Variable at 5 knots 10,000+ meters
Clouds
  • No significant clouds
Conditions
Probability 30% Probable Apr-21 @ 12:00 - Apr-21 @ 18:00
Clouds
  • Broken at 300' AGL
Conditions
  • Fog
From Apr-21 @ 15:00 - Apr-21 @ 18:00
Wind Visibility
260° at 8 knots 10,000+ meters
Clouds
  • Broken at 1,000' AGL